sensor_id;sensor_type;location;lat;lon;timestamp;P1;durP1;ratioP1;P2;durP2;ratioP2
75628;SDS011;64213;46.452;16.994;2022-10-16T00:00:30;57.57;;;26.83;;
75628;SDS011;64213;46.452;16.994;2022-10-16T00:03:32;54.25;;;28.45;;
75628;SDS011;64213;46.452;16.994;2022-10-16T00:06:34;52.28;;;27.23;;
75628;SDS011;64213;46.452;16.994;2022-10-16T00:09:36;53.10;;;27.48;;
75628;SDS011;64213;46.452;16.994;2022-10-16T00:12:38;52.37;;;27.07;;
75628;SDS011;64213;46.452;16.994;2022-10-16T00:15:40;56.03;;;30.27;;
75628;SDS011;64213;46.452;16.994;2022-10-16T00:18:44;60.38;;;28.87;;
75628;SDS011;64213;46.452;16.994;2022-10-16T00:21:47;57.10;;;28.90;;
75628;SDS011;64213;46.452;16.994;2022-10-16T00:24:49;52.67;;;26.70;;
75628;SDS011;64213;46.452;16.994;2022-10-16T00:27:51;60.37;;;30.80;;
75628;SDS011;64213;46.452;16.994;2022-10-16T00:30:53;52.03;;;26.23;;
75628;SDS011;64213;46.452;16.994;2022-10-16T00:33:55;51.58;;;26.65;;
75628;SDS011;64213;46.452;16.994;2022-10-16T00:36:57;47.97;;;25.80;;
75628;SDS011;64213;46.452;16.994;2022-10-16T00:39:59;50.33;;;26.25;;
75628;SDS011;64213;46.452;16.994;2022-10-16T00:43:02;45.37;;;24.40;;
75628;SDS011;64213;46.452;16.994;2022-10-16T00:49:19;43.28;;;23.73;;
75628;SDS011;64213;46.452;16.994;2022-10-16T00:52:22;42.67;;;23.08;;
75628;SDS011;64213;46.452;16.994;2022-10-16T00:55:25;45.67;;;23.73;;
75628;SDS011;64213;46.452;16.994;2022-10-16T00:58:27;41.67;;;23.17;;
75628;SDS011;64213;46.452;16.994;2022-10-16T01:01:29;44.23;;;23.37;;
75628;SDS011;64213;46.452;16.994;2022-10-16T01:04:35;43.08;;;23.67;;
75628;SDS011;64213;46.452;16.994;2022-10-16T01:07:43;43.67;;;23.33;;
75628;SDS011;64213;46.452;16.994;2022-10-16T01:11:12;50.25;;;24.80;;
75628;SDS011;64213;46.452;16.994;2022-10-16T01:14:28;47.13;;;24.43;;
75628;SDS011;64213;46.452;16.994;2022-10-16T01:21:29;46.85;;;24.92;;
75628;SDS011;64213;46.452;16.994;2022-10-16T01:24:40;46.28;;;23.55;;
75628;SDS011;64213;46.452;16.994;2022-10-16T01:27:46;43.45;;;23.25;;
75628;SDS011;64213;46.452;16.994;2022-10-16T01:30:50;45.07;;;23.50;;
75628;SDS011;64213;46.452;16.994;2022-10-16T01:34:09;46.00;;;24.30;;
75628;SDS011;64213;46.452;16.994;2022-10-16T01:37:35;47.15;;;24.05;;
75628;SDS011;64213;46.452;16.994;2022-10-16T01:40:43;43.80;;;24.15;;
75628;SDS011;64213;46.452;16.994;2022-10-16T01:43:58;49.55;;;25.25;;
75628;SDS011;64213;46.452;16.994;2022-10-16T01:47:02;43.23;;;24.37;;
75628;SDS011;64213;46.452;16.994;2022-10-16T01:50:06;50.37;;;25.03;;
75628;SDS011;64213;46.452;16.994;2022-10-16T01:53:10;46.28;;;24.98;;
75628;SDS011;64213;46.452;16.994;2022-10-16T01:56:14;47.85;;;25.27;;
75628;SDS011;64213;46.452;16.994;2022-10-16T01:59:19;51.13;;;26.17;;
75628;SDS011;64213;46.452;16.994;2022-10-16T02:02:25;46.43;;;24.20;;
75628;SDS011;64213;46.452;16.994;2022-10-16T02:05:30;43.70;;;23.40;;
75628;SDS011;64213;46.452;16.994;2022-10-16T02:08:35;48.97;;;24.12;;
75628;SDS011;64213;46.452;16.994;2022-10-16T02:11:40;45.58;;;24.17;;
75628;SDS011;64213;46.452;16.994;2022-10-16T02:14:42;48.42;;;23.73;;
75628;SDS011;64213;46.452;16.994;2022-10-16T02:17:44;42.63;;;23.50;;
75628;SDS011;64213;46.452;16.994;2022-10-16T02:20:59;41.03;;;22.50;;
75628;SDS011;64213;46.452;16.994;2022-10-16T02:30:36;41.10;;;22.33;;
75628;SDS011;64213;46.452;16.994;2022-10-16T02:33:40;38.70;;;22.07;;
75628;SDS011;64213;46.452;16.994;2022-10-16T02:36:44;37.63;;;21.60;;
75628;SDS011;64213;46.452;16.994;2022-10-16T02:39:48;42.10;;;21.58;;
75628;SDS011;64213;46.452;16.994;2022-10-16T02:42:51;40.25;;;22.15;;
75628;SDS011;64213;46.452;16.994;2022-10-16T02:45:54;40.17;;;21.98;;
75628;SDS011;64213;46.452;16.994;2022-10-16T02:48:57;40.83;;;21.87;;
75628;SDS011;64213;46.452;16.994;2022-10-16T02:51:59;38.50;;;20.57;;
75628;SDS011;64213;46.452;16.994;2022-10-16T02:55:01;38.45;;;19.70;;
75628;SDS011;64213;46.452;16.994;2022-10-16T02:58:03;41.58;;;20.48;;
75628;SDS011;64213;46.452;16.994;2022-10-16T03:01:05;37.45;;;20.67;;
75628;SDS011;64213;46.452;16.994;2022-10-16T03:04:07;38.27;;;21.03;;
75628;SDS011;64213;46.452;16.994;2022-10-16T03:07:09;39.77;;;21.97;;
75628;SDS011;64213;46.452;16.994;2022-10-16T03:10:11;38.55;;;20.48;;
75628;SDS011;64213;46.452;16.994;2022-10-16T03:13:13;38.33;;;20.10;;
75628;SDS011;64213;46.452;16.994;2022-10-16T03:16:15;36.13;;;19.05;;
75628;SDS011;64213;46.452;16.994;2022-10-16T03:19:18;34.10;;;19.47;;
75628;SDS011;64213;46.452;16.994;2022-10-16T03:22:20;36.07;;;19.70;;
75628;SDS011;64213;46.452;16.994;2022-10-16T03:25:22;38.58;;;19.33;;
75628;SDS011;64213;46.452;16.994;2022-10-16T03:28:24;35.65;;;19.95;;
75628;SDS011;64213;46.452;16.994;2022-10-16T03:31:26;33.90;;;19.42;;
75628;SDS011;64213;46.452;16.994;2022-10-16T03:34:28;36.93;;;20.13;;
75628;SDS011;64213;46.452;16.994;2022-10-16T03:37:31;34.27;;;19.77;;
75628;SDS011;64213;46.452;16.994;2022-10-16T03:40:33;41.03;;;20.90;;
75628;SDS011;64213;46.452;16.994;2022-10-16T03:43:35;38.03;;;21.02;;
75628;SDS011;64213;46.452;16.994;2022-10-16T03:46:37;40.58;;;22.33;;
75628;SDS011;64213;46.452;16.994;2022-10-16T03:49:39;42.57;;;23.30;;
75628;SDS011;64213;46.452;16.994;2022-10-16T03:52:41;59.43;;;26.37;;
75628;SDS011;64213;46.452;16.994;2022-10-16T03:55:43;45.05;;;24.20;;
75628;SDS011;64213;46.452;16.994;2022-10-16T03:58:46;45.22;;;23.70;;
75628;SDS011;64213;46.452;16.994;2022-10-16T04:01:48;45.50;;;22.50;;
75628;SDS011;64213;46.452;16.994;2022-10-16T04:04:50;51.43;;;25.33;;
75628;SDS011;64213;46.452;16.994;2022-10-16T04:07:52;51.13;;;25.07;;
75628;SDS011;64213;46.452;16.994;2022-10-16T04:10:54;47.22;;;24.63;;
75628;SDS011;64213;46.452;16.994;2022-10-16T04:13:56;47.72;;;23.40;;
75628;SDS011;64213;46.452;16.994;2022-10-16T04:16:58;46.35;;;24.05;;
75628;SDS011;64213;46.452;16.994;2022-10-16T04:20:00;48.50;;;24.63;;
75628;SDS011;64213;46.452;16.994;2022-10-16T04:23:02;47.50;;;24.70;;
75628;SDS011;64213;46.452;16.994;2022-10-16T04:26:04;48.92;;;25.42;;
75628;SDS011;64213;46.452;16.994;2022-10-16T04:29:06;47.92;;;24.25;;
75628;SDS011;64213;46.452;16.994;2022-10-16T04:32:09;53.08;;;25.40;;
75628;SDS011;64213;46.452;16.994;2022-10-16T04:35:11;49.67;;;25.80;;
75628;SDS011;64213;46.452;16.994;2022-10-16T04:38:13;51.77;;;25.77;;
75628;SDS011;64213;46.452;16.994;2022-10-16T04:41:15;49.65;;;25.65;;
75628;SDS011;64213;46.452;16.994;2022-10-16T04:44:17;48.85;;;24.90;;
75628;SDS011;64213;46.452;16.994;2022-10-16T04:47:19;51.15;;;25.45;;
75628;SDS011;64213;46.452;16.994;2022-10-16T04:50:21;50.77;;;25.50;;
75628;SDS011;64213;46.452;16.994;2022-10-16T04:53:23;46.67;;;25.77;;
75628;SDS011;64213;46.452;16.994;2022-10-16T04:56:25;45.47;;;24.77;;
75628;SDS011;64213;46.452;16.994;2022-10-16T04:59:27;46.30;;;24.73;;
75628;SDS011;64213;46.452;16.994;2022-10-16T05:02:29;44.75;;;24.17;;
75628;SDS011;64213;46.452;16.994;2022-10-16T05:05:31;47.83;;;24.93;;
75628;SDS011;64213;46.452;16.994;2022-10-16T05:08:33;49.23;;;24.60;;
75628;SDS011;64213;46.452;16.994;2022-10-16T05:11:35;50.88;;;24.17;;
75628;SDS011;64213;46.452;16.994;2022-10-16T05:14:37;48.75;;;24.92;;
75628;SDS011;64213;46.452;16.994;2022-10-16T05:17:39;42.40;;;22.87;;
75628;SDS011;64213;46.452;16.994;2022-10-16T05:20:45;43.10;;;23.10;;
75628;SDS011;64213;46.452;16.994;2022-10-16T05:23:47;38.13;;;20.67;;
75628;SDS011;64213;46.452;16.994;2022-10-16T05:26:50;38.85;;;20.58;;
75628;SDS011;64213;46.452;16.994;2022-10-16T05:29:52;39.30;;;21.60;;
75628;SDS011;64213;46.452;16.994;2022-10-16T05:32:54;38.97;;;20.50;;
75628;SDS011;64213;46.452;16.994;2022-10-16T05:35:56;40.23;;;21.83;;
75628;SDS011;64213;46.452;16.994;2022-10-16T05:38:58;42.60;;;22.33;;
75628;SDS011;64213;46.452;16.994;2022-10-16T05:42:00;39.17;;;21.70;;
75628;SDS011;64213;46.452;16.994;2022-10-16T05:45:03;42.03;;;23.05;;
75628;SDS011;64213;46.452;16.994;2022-10-16T05:48:06;43.08;;;22.45;;
75628;SDS011;64213;46.452;16.994;2022-10-16T05:51:09;38.80;;;21.00;;
75628;SDS011;64213;46.452;16.994;2022-10-16T05:54:12;43.60;;;23.17;;
75628;SDS011;64213;46.452;16.994;2022-10-16T05:57:14;41.83;;;23.05;;
75628;SDS011;64213;46.452;16.994;2022-10-16T06:00:17;41.92;;;23.05;;
75628;SDS011;64213;46.452;16.994;2022-10-16T06:03:19;43.42;;;22.98;;
75628;SDS011;64213;46.452;16.994;2022-10-16T06:06:22;45.40;;;23.30;;
75628;SDS011;64213;46.452;16.994;2022-10-16T06:09:27;44.13;;;23.73;;
75628;SDS011;64213;46.452;16.994;2022-10-16T06:12:29;41.63;;;22.55;;
75628;SDS011;64213;46.452;16.994;2022-10-16T06:15:32;43.85;;;22.98;;
75628;SDS011;64213;46.452;16.994;2022-10-16T06:18:34;44.38;;;23.87;;
75628;SDS011;64213;46.452;16.994;2022-10-16T06:21:36;40.97;;;22.37;;
75628;SDS011;64213;46.452;16.994;2022-10-16T06:24:38;41.03;;;22.40;;
75628;SDS011;64213;46.452;16.994;2022-10-16T06:27:40;40.83;;;22.15;;
75628;SDS011;64213;46.452;16.994;2022-10-16T06:30:42;44.95;;;22.65;;
75628;SDS011;64213;46.452;16.994;2022-10-16T06:33:50;39.85;;;21.95;;
75628;SDS011;64213;46.452;16.994;2022-10-16T06:36:52;44.83;;;23.30;;
75628;SDS011;64213;46.452;16.994;2022-10-16T06:39:54;42.43;;;22.90;;
75628;SDS011;64213;46.452;16.994;2022-10-16T06:42:57;41.20;;;22.73;;
75628;SDS011;64213;46.452;16.994;2022-10-16T06:45:59;42.35;;;22.77;;
75628;SDS011;64213;46.452;16.994;2022-10-16T06:49:02;43.55;;;23.58;;
75628;SDS011;64213;46.452;16.994;2022-10-16T06:52:04;43.17;;;23.67;;
75628;SDS011;64213;46.452;16.994;2022-10-16T06:55:06;38.97;;;22.13;;
75628;SDS011;64213;46.452;16.994;2022-10-16T06:58:09;39.60;;;22.02;;
75628;SDS011;64213;46.452;16.994;2022-10-16T07:01:11;38.17;;;21.25;;
75628;SDS011;64213;46.452;16.994;2022-10-16T07:04:14;37.40;;;20.95;;
75628;SDS011;64213;46.452;16.994;2022-10-16T07:07:16;39.97;;;21.20;;
75628;SDS011;64213;46.452;16.994;2022-10-16T07:10:18;34.13;;;20.10;;
75628;SDS011;64213;46.452;16.994;2022-10-16T07:13:20;36.08;;;19.80;;
75628;SDS011;64213;46.452;16.994;2022-10-16T07:16:24;36.78;;;21.33;;
75628;SDS011;64213;46.452;16.994;2022-10-16T07:19:30;37.58;;;20.60;;
75628;SDS011;64213;46.452;16.994;2022-10-16T07:22:35;39.47;;;20.63;;
75628;SDS011;64213;46.452;16.994;2022-10-16T07:25:37;34.67;;;20.30;;
75628;SDS011;64213;46.452;16.994;2022-10-16T07:28:39;35.40;;;20.95;;
75628;SDS011;64213;46.452;16.994;2022-10-16T07:31:42;35.95;;;20.27;;
75628;SDS011;64213;46.452;16.994;2022-10-16T07:34:44;32.15;;;18.58;;
75628;SDS011;64213;46.452;16.994;2022-10-16T07:37:47;36.72;;;21.92;;
75628;SDS011;64213;46.452;16.994;2022-10-16T07:40:55;34.33;;;18.93;;
75628;SDS011;64213;46.452;16.994;2022-10-16T07:44:05;33.88;;;20.55;;
75628;SDS011;64213;46.452;16.994;2022-10-16T07:47:08;35.25;;;20.60;;
75628;SDS011;64213;46.452;16.994;2022-10-16T07:50:11;39.00;;;20.98;;
75628;SDS011;64213;46.452;16.994;2022-10-16T07:53:13;34.42;;;21.60;;
75628;SDS011;64213;46.452;16.994;2022-10-16T07:56:16;37.07;;;21.40;;
75628;SDS011;64213;46.452;16.994;2022-10-16T07:59:18;39.15;;;21.90;;
75628;SDS011;64213;46.452;16.994;2022-10-16T08:02:20;38.88;;;22.90;;
75628;SDS011;64213;46.452;16.994;2022-10-16T08:05:22;37.75;;;22.98;;
75628;SDS011;64213;46.452;16.994;2022-10-16T08:08:25;36.50;;;22.92;;
75628;SDS011;64213;46.452;16.994;2022-10-16T08:11:27;38.23;;;23.20;;
75628;SDS011;64213;46.452;16.994;2022-10-16T08:14:29;39.05;;;24.05;;
75628;SDS011;64213;46.452;16.994;2022-10-16T08:17:31;38.55;;;23.27;;
75628;SDS011;64213;46.452;16.994;2022-10-16T08:20:33;40.05;;;24.67;;
75628;SDS011;64213;46.452;16.994;2022-10-16T08:23:35;44.08;;;25.65;;
75628;SDS011;64213;46.452;16.994;2022-10-16T08:26:37;39.10;;;24.13;;
75628;SDS011;64213;46.452;16.994;2022-10-16T08:29:39;41.65;;;26.17;;
75628;SDS011;64213;46.452;16.994;2022-10-16T08:32:41;41.80;;;24.98;;
75628;SDS011;64213;46.452;16.994;2022-10-16T08:35:50;43.67;;;24.83;;
75628;SDS011;64213;46.452;16.994;2022-10-16T08:38:54;42.53;;;26.42;;
75628;SDS011;64213;46.452;16.994;2022-10-16T08:48:36;42.20;;;25.35;;
75628;SDS011;64213;46.452;16.994;2022-10-16T08:51:46;40.30;;;22.50;;
75628;SDS011;64213;46.452;16.994;2022-10-16T08:54:51;40.33;;;23.87;;
75628;SDS011;64213;46.452;16.994;2022-10-16T08:57:56;39.40;;;23.57;;
75628;SDS011;64213;46.452;16.994;2022-10-16T09:01:00;41.75;;;23.87;;
75628;SDS011;64213;46.452;16.994;2022-10-16T09:07:18;40.20;;;23.35;;
75628;SDS011;64213;46.452;16.994;2022-10-16T09:10:46;36.53;;;21.45;;
75628;SDS011;64213;46.452;16.994;2022-10-16T09:14:06;37.97;;;21.27;;
75628;SDS011;64213;46.452;16.994;2022-10-16T09:24:17;36.47;;;21.33;;
75628;SDS011;64213;46.452;16.994;2022-10-16T09:27:25;34.25;;;20.70;;
75628;SDS011;64213;46.452;16.994;2022-10-16T09:30:29;33.90;;;19.47;;
75628;SDS011;64213;46.452;16.994;2022-10-16T09:33:35;34.17;;;19.70;;
75628;SDS011;64213;46.452;16.994;2022-10-16T09:36:42;34.67;;;20.40;;
75628;SDS011;64213;46.452;16.994;2022-10-16T09:42:53;32.75;;;20.42;;
75628;SDS011;64213;46.452;16.994;2022-10-16T09:46:08;34.43;;;20.43;;
75628;SDS011;64213;46.452;16.994;2022-10-16T09:49:24;32.10;;;19.52;;
75628;SDS011;64213;46.452;16.994;2022-10-16T09:52:28;31.60;;;20.62;;
75628;SDS011;64213;46.452;16.994;2022-10-16T09:55:30;28.15;;;15.57;;
75628;SDS011;64213;46.452;16.994;2022-10-16T09:58:33;30.85;;;20.20;;
75628;SDS011;64213;46.452;16.994;2022-10-16T10:01:39;29.70;;;19.53;;
75628;SDS011;64213;46.452;16.994;2022-10-16T10:04:52;27.48;;;18.20;;
75628;SDS011;64213;46.452;16.994;2022-10-16T10:07:57;29.23;;;18.83;;
75628;SDS011;64213;46.452;16.994;2022-10-16T10:11:01;30.50;;;20.37;;
75628;SDS011;64213;46.452;16.994;2022-10-16T10:14:04;29.70;;;21.12;;
75628;SDS011;64213;46.452;16.994;2022-10-16T10:17:27;29.97;;;20.37;;
75628;SDS011;64213;46.452;16.994;2022-10-16T10:20:33;31.65;;;20.35;;
75628;SDS011;64213;46.452;16.994;2022-10-16T10:23:37;30.83;;;19.65;;
75628;SDS011;64213;46.452;16.994;2022-10-16T10:26:40;30.52;;;20.30;;
75628;SDS011;64213;46.452;16.994;2022-10-16T10:36:40;30.35;;;19.92;;
75628;SDS011;64213;46.452;16.994;2022-10-16T10:39:52;32.60;;;21.00;;
75628;SDS011;64213;46.452;16.994;2022-10-16T10:47:05;29.23;;;17.70;;
75628;SDS011;64213;46.452;16.994;2022-10-16T10:50:15;27.23;;;18.33;;
75628;SDS011;64213;46.452;16.994;2022-10-16T10:53:28;28.95;;;19.17;;
75628;SDS011;64213;46.452;16.994;2022-10-16T11:00:09;28.45;;;18.87;;
75628;SDS011;64213;46.452;16.994;2022-10-16T11:06:31;28.70;;;19.63;;
75628;SDS011;64213;46.452;16.994;2022-10-16T11:09:41;29.15;;;18.83;;
75628;SDS011;64213;46.452;16.994;2022-10-16T11:12:50;23.62;;;16.40;;
75628;SDS011;64213;46.452;16.994;2022-10-16T11:15:59;32.22;;;20.67;;
75628;SDS011;64213;46.452;16.994;2022-10-16T11:22:35;30.10;;;20.00;;
75628;SDS011;64213;46.452;16.994;2022-10-16T11:25:43;26.02;;;17.75;;
75628;SDS011;64213;46.452;16.994;2022-10-16T11:28:50;29.45;;;19.95;;
75628;SDS011;64213;46.452;16.994;2022-10-16T11:32:01;27.33;;;17.25;;
75628;SDS011;64213;46.452;16.994;2022-10-16T11:35:14;34.38;;;25.45;;
75628;SDS011;64213;46.452;16.994;2022-10-16T11:38:25;23.87;;;15.30;;
75628;SDS011;64213;46.452;16.994;2022-10-16T11:41:49;30.25;;;19.12;;
75628;SDS011;64213;46.452;16.994;2022-10-16T11:51:25;28.42;;;18.65;;
75628;SDS011;64213;46.452;16.994;2022-10-16T11:58:41;28.17;;;18.73;;
75628;SDS011;64213;46.452;16.994;2022-10-16T12:01:47;28.52;;;19.70;;
75628;SDS011;64213;46.452;16.994;2022-10-16T12:08:33;31.87;;;20.27;;
75628;SDS011;64213;46.452;16.994;2022-10-16T12:11:37;25.80;;;18.90;;
75628;SDS011;64213;46.452;16.994;2022-10-16T12:14:40;28.87;;;18.85;;
75628;SDS011;64213;46.452;16.994;2022-10-16T12:18:02;28.35;;;19.20;;
75628;SDS011;64213;46.452;16.994;2022-10-16T12:21:04;27.05;;;17.40;;
75628;SDS011;64213;46.452;16.994;2022-10-16T12:24:19;27.70;;;19.50;;
75628;SDS011;64213;46.452;16.994;2022-10-16T12:27:28;27.13;;;18.47;;
75628;SDS011;64213;46.452;16.994;2022-10-16T12:30:33;26.60;;;17.52;;
75628;SDS011;64213;46.452;16.994;2022-10-16T12:33:41;26.17;;;17.73;;
75628;SDS011;64213;46.452;16.994;2022-10-16T12:36:53;27.17;;;17.70;;
75628;SDS011;64213;46.452;16.994;2022-10-16T12:39:56;25.92;;;18.23;;
75628;SDS011;64213;46.452;16.994;2022-10-16T12:43:10;25.60;;;17.67;;
75628;SDS011;64213;46.452;16.994;2022-10-16T12:49:36;24.25;;;16.80;;
75628;SDS011;64213;46.452;16.994;2022-10-16T12:52:58;24.92;;;17.42;;
75628;SDS011;64213;46.452;16.994;2022-10-16T12:56:22;21.12;;;12.90;;
75628;SDS011;64213;46.452;16.994;2022-10-16T13:02:54;26.42;;;17.92;;
75628;SDS011;64213;46.452;16.994;2022-10-16T13:09:45;28.02;;;17.33;;
75628;SDS011;64213;46.452;16.994;2022-10-16T13:23:06;24.05;;;16.85;;
75628;SDS011;64213;46.452;16.994;2022-10-16T13:26:20;24.95;;;17.05;;
75628;SDS011;64213;46.452;16.994;2022-10-16T13:29:43;24.92;;;16.05;;
75628;SDS011;64213;46.452;16.994;2022-10-16T13:32:49;26.77;;;16.50;;
75628;SDS011;64213;46.452;16.994;2022-10-16T13:36:01;26.35;;;17.90;;
75628;SDS011;64213;46.452;16.994;2022-10-16T13:42:28;27.67;;;18.25;;
75628;SDS011;64213;46.452;16.994;2022-10-16T13:45:31;29.20;;;18.50;;
75628;SDS011;64213;46.452;16.994;2022-10-16T13:48:33;28.17;;;19.30;;
75628;SDS011;64213;46.452;16.994;2022-10-16T13:51:35;31.58;;;19.75;;
75628;SDS011;64213;46.452;16.994;2022-10-16T13:54:37;28.60;;;19.10;;
75628;SDS011;64213;46.452;16.994;2022-10-16T13:57:40;27.83;;;17.65;;
75628;SDS011;64213;46.452;16.994;2022-10-16T14:00:53;29.23;;;17.73;;
75628;SDS011;64213;46.452;16.994;2022-10-16T14:04:06;28.57;;;18.10;;
75628;SDS011;64213;46.452;16.994;2022-10-16T14:07:14;27.42;;;19.12;;
75628;SDS011;64213;46.452;16.994;2022-10-16T14:10:27;26.30;;;17.65;;
75628;SDS011;64213;46.452;16.994;2022-10-16T14:13:37;28.52;;;18.80;;
75628;SDS011;64213;46.452;16.994;2022-10-16T14:16:44;26.98;;;18.45;;
75628;SDS011;64213;46.452;16.994;2022-10-16T14:19:48;28.93;;;19.07;;
75628;SDS011;64213;46.452;16.994;2022-10-16T14:29:12;29.60;;;18.62;;
75628;SDS011;64213;46.452;16.994;2022-10-16T14:32:26;29.15;;;18.85;;
75628;SDS011;64213;46.452;16.994;2022-10-16T14:35:30;28.63;;;18.27;;
75628;SDS011;64213;46.452;16.994;2022-10-16T14:38:33;30.00;;;18.08;;
75628;SDS011;64213;46.452;16.994;2022-10-16T14:41:41;32.05;;;18.10;;
75628;SDS011;64213;46.452;16.994;2022-10-16T14:44:46;35.53;;;21.87;;
75628;SDS011;64213;46.452;16.994;2022-10-16T14:47:50;36.97;;;24.58;;
75628;SDS011;64213;46.452;16.994;2022-10-16T14:51:02;32.53;;;20.23;;
75628;SDS011;64213;46.452;16.994;2022-10-16T14:54:04;31.30;;;18.62;;
75628;SDS011;64213;46.452;16.994;2022-10-16T14:57:15;34.17;;;19.80;;
75628;SDS011;64213;46.452;16.994;2022-10-16T15:00:21;41.92;;;23.52;;
75628;SDS011;64213;46.452;16.994;2022-10-16T15:03:24;39.70;;;24.27;;
75628;SDS011;64213;46.452;16.994;2022-10-16T15:06:27;36.33;;;20.50;;
75628;SDS011;64213;46.452;16.994;2022-10-16T15:09:29;34.80;;;21.55;;
75628;SDS011;64213;46.452;16.994;2022-10-16T15:12:31;32.15;;;19.00;;
75628;SDS011;64213;46.452;16.994;2022-10-16T15:15:35;34.95;;;21.27;;
75628;SDS011;64213;46.452;16.994;2022-10-16T15:18:38;38.90;;;21.83;;
75628;SDS011;64213;46.452;16.994;2022-10-16T15:21:40;32.00;;;19.67;;
75628;SDS011;64213;46.452;16.994;2022-10-16T15:24:43;32.72;;;19.95;;
75628;SDS011;64213;46.452;16.994;2022-10-16T15:27:46;32.15;;;18.98;;
75628;SDS011;64213;46.452;16.994;2022-10-16T15:30:51;31.70;;;20.92;;
75628;SDS011;64213;46.452;16.994;2022-10-16T15:33:58;33.90;;;19.92;;
75628;SDS011;64213;46.452;16.994;2022-10-16T15:37:05;32.67;;;19.00;;
75628;SDS011;64213;46.452;16.994;2022-10-16T15:40:08;37.92;;;22.27;;
75628;SDS011;64213;46.452;16.994;2022-10-16T15:43:11;32.67;;;19.80;;
75628;SDS011;64213;46.452;16.994;2022-10-16T15:46:13;34.22;;;18.92;;
75628;SDS011;64213;46.452;16.994;2022-10-16T15:49:17;34.72;;;19.80;;
75628;SDS011;64213;46.452;16.994;2022-10-16T15:52:19;37.57;;;21.90;;
75628;SDS011;64213;46.452;16.994;2022-10-16T15:55:21;35.45;;;20.27;;
75628;SDS011;64213;46.452;16.994;2022-10-16T15:58:23;31.95;;;19.35;;
75628;SDS011;64213;46.452;16.994;2022-10-16T16:01:26;33.95;;;19.02;;
75628;SDS011;64213;46.452;16.994;2022-10-16T16:04:30;30.83;;;18.80;;
75628;SDS011;64213;46.452;16.994;2022-10-16T16:07:44;42.03;;;25.13;;
75628;SDS011;64213;46.452;16.994;2022-10-16T16:11:06;38.28;;;21.90;;
75628;SDS011;64213;46.452;16.994;2022-10-16T16:14:13;39.95;;;24.02;;
75628;SDS011;64213;46.452;16.994;2022-10-16T16:17:15;34.78;;;21.40;;
75628;SDS011;64213;46.452;16.994;2022-10-16T16:20:17;40.08;;;24.90;;
75628;SDS011;64213;46.452;16.994;2022-10-16T16:23:19;42.30;;;27.10;;
75628;SDS011;64213;46.452;16.994;2022-10-16T16:26:26;41.65;;;24.02;;
75628;SDS011;64213;46.452;16.994;2022-10-16T16:29:31;40.90;;;23.12;;
75628;SDS011;64213;46.452;16.994;2022-10-16T16:32:33;43.50;;;23.80;;
75628;SDS011;64213;46.452;16.994;2022-10-16T16:35:36;40.60;;;23.92;;
75628;SDS011;64213;46.452;16.994;2022-10-16T16:38:38;37.10;;;21.17;;
75628;SDS011;64213;46.452;16.994;2022-10-16T16:41:40;43.63;;;24.55;;
75628;SDS011;64213;46.452;16.994;2022-10-16T16:44:42;43.40;;;24.42;;
75628;SDS011;64213;46.452;16.994;2022-10-16T16:47:44;43.40;;;23.42;;
75628;SDS011;64213;46.452;16.994;2022-10-16T16:50:46;43.08;;;24.33;;
75628;SDS011;64213;46.452;16.994;2022-10-16T16:53:49;43.50;;;24.07;;
75628;SDS011;64213;46.452;16.994;2022-10-16T16:56:53;47.47;;;24.02;;
75628;SDS011;64213;46.452;16.994;2022-10-16T16:59:55;50.95;;;26.37;;
75628;SDS011;64213;46.452;16.994;2022-10-16T17:02:57;49.67;;;29.63;;
75628;SDS011;64213;46.452;16.994;2022-10-16T17:06:01;50.50;;;29.30;;
75628;SDS011;64213;46.452;16.994;2022-10-16T17:09:08;52.07;;;31.23;;
75628;SDS011;64213;46.452;16.994;2022-10-16T17:12:11;55.22;;;30.35;;
75628;SDS011;64213;46.452;16.994;2022-10-16T17:15:14;60.22;;;31.58;;
75628;SDS011;64213;46.452;16.994;2022-10-16T17:18:17;58.58;;;31.75;;
75628;SDS011;64213;46.452;16.994;2022-10-16T17:21:20;51.88;;;30.48;;
75628;SDS011;64213;46.452;16.994;2022-10-16T17:24:24;48.57;;;26.50;;
75628;SDS011;64213;46.452;16.994;2022-10-16T17:27:32;51.58;;;26.75;;
75628;SDS011;64213;46.452;16.994;2022-10-16T17:30:35;52.15;;;27.62;;
75628;SDS011;64213;46.452;16.994;2022-10-16T17:33:38;59.47;;;30.75;;
75628;SDS011;64213;46.452;16.994;2022-10-16T17:36:41;57.80;;;30.37;;
75628;SDS011;64213;46.452;16.994;2022-10-16T17:39:45;64.37;;;34.43;;
75628;SDS011;64213;46.452;16.994;2022-10-16T17:42:48;65.12;;;34.00;;
75628;SDS011;64213;46.452;16.994;2022-10-16T17:45:51;62.42;;;34.40;;
75628;SDS011;64213;46.452;16.994;2022-10-16T17:48:54;54.80;;;31.80;;
75628;SDS011;64213;46.452;16.994;2022-10-16T17:51:57;54.45;;;31.33;;
75628;SDS011;64213;46.452;16.994;2022-10-16T17:55:03;59.83;;;29.50;;
75628;SDS011;64213;46.452;16.994;2022-10-16T17:58:07;48.40;;;26.65;;
75628;SDS011;64213;46.452;16.994;2022-10-16T18:01:16;51.08;;;25.73;;
75628;SDS011;64213;46.452;16.994;2022-10-16T18:04:28;50.72;;;28.45;;
75628;SDS011;64213;46.452;16.994;2022-10-16T18:07:34;52.22;;;28.42;;
75628;SDS011;64213;46.452;16.994;2022-10-16T18:10:44;54.07;;;27.40;;
75628;SDS011;64213;46.452;16.994;2022-10-16T18:13:52;50.97;;;28.52;;
75628;SDS011;64213;46.452;16.994;2022-10-16T18:16:58;52.35;;;28.65;;
75628;SDS011;64213;46.452;16.994;2022-10-16T18:20:01;56.17;;;29.17;;
75628;SDS011;64213;46.452;16.994;2022-10-16T18:23:04;47.10;;;28.02;;
75628;SDS011;64213;46.452;16.994;2022-10-16T18:26:07;48.93;;;26.83;;
75628;SDS011;64213;46.452;16.994;2022-10-16T18:29:12;46.72;;;25.60;;
75628;SDS011;64213;46.452;16.994;2022-10-16T18:32:14;50.58;;;25.77;;
75628;SDS011;64213;46.452;16.994;2022-10-16T18:35:17;44.78;;;24.67;;
75628;SDS011;64213;46.452;16.994;2022-10-16T18:38:20;47.00;;;25.02;;
75628;SDS011;64213;46.452;16.994;2022-10-16T18:41:24;47.00;;;24.50;;
75628;SDS011;64213;46.452;16.994;2022-10-16T18:44:28;42.78;;;23.62;;
75628;SDS011;64213;46.452;16.994;2022-10-16T18:47:32;44.80;;;24.65;;
75628;SDS011;64213;46.452;16.994;2022-10-16T18:50:39;40.50;;;21.55;;
75628;SDS011;64213;46.452;16.994;2022-10-16T18:53:43;39.25;;;21.33;;
75628;SDS011;64213;46.452;16.994;2022-10-16T18:56:49;41.73;;;21.50;;
75628;SDS011;64213;46.452;16.994;2022-10-16T18:59:53;38.75;;;20.25;;
75628;SDS011;64213;46.452;16.994;2022-10-16T19:02:56;38.95;;;22.27;;
75628;SDS011;64213;46.452;16.994;2022-10-16T19:06:00;41.70;;;21.58;;
75628;SDS011;64213;46.452;16.994;2022-10-16T19:09:15;39.53;;;20.45;;
75628;SDS011;64213;46.452;16.994;2022-10-16T19:12:18;35.80;;;19.60;;
75628;SDS011;64213;46.452;16.994;2022-10-16T19:15:21;39.58;;;20.52;;
75628;SDS011;64213;46.452;16.994;2022-10-16T19:18:25;39.25;;;21.08;;
75628;SDS011;64213;46.452;16.994;2022-10-16T19:21:30;38.65;;;19.87;;
75628;SDS011;64213;46.452;16.994;2022-10-16T19:24:33;35.60;;;18.25;;